Time;durP1;ratioP1;P1;durP2;ratioP2;P2;SDS_P1;SDS_P2;PMS_P1;PMS_P2;Temp;Humidity;BMP_temperature;BMP_pressure;BME280_temperature;BME280_humidity;BME280_pressure;Samples;Min_cycle;Max_cycle;Signal;HPM_P1;HPM_P2
2022/06/13 00:03:24;;;;;;;7.00;4.20;;;;;;;25.02;46.85;100313.32;103796;1315;75168;-90
2022/06/13 00:06:35;;;;;;;8.10;4.10;;;;;;;25.04;46.93;100312.60;103766;1315;71579;-89
2022/06/13 00:12:10;;;;;;;6.20;4.00;;;;;;;25.11;46.87;100305.22;103737;1315;67334;-90
2022/06/13 00:15:15;;;;;;;4.10;3.70;;;;;;;25.11;46.74;100302.89;103890;1315;74277;-89
2022/06/13 00:21:09;;;;;;;5.80;3.80;;;;;;;25.09;46.80;100298.71;103732;1316;72030;-90
2022/06/13 00:26:45;;;;;;;6.00;4.20;;;;;;;25.13;46.48;100297.13;103698;1316;67497;-89
2022/06/13 00:32:22;;;;;;;5.70;4.00;;;;;;;25.08;46.52;100304.79;103704;1315;75752;-91
2022/06/13 00:35:23;;;;;;;5.30;4.10;;;;;;;25.10;46.47;100301.99;103718;1315;72825;-90
2022/06/13 00:41:10;;;;;;;6.30;4.20;;;;;;;25.12;46.40;100304.32;103778;1315;67700;-90
2022/06/13 00:46:50;;;;;;;6.30;4.30;;;;;;;25.07;46.42;100305.02;96212;1315;81749;-90
2022/06/13 00:52:31;;;;;;;5.50;4.30;;;;;;;25.12;46.42;100305.75;103767;1315;67997;-90
2022/06/13 00:58:07;;;;;;;6.10;4.70;;;;;;;25.08;46.30;100300.27;103750;1317;72976;-88
2022/06/13 01:06:28;;;;;;;5.50;4.60;;;;;;;25.11;46.21;100301.66;103773;1315;68136;-90
2022/06/13 01:15:43;;;;;;;6.70;4.60;;;;;;;25.05;46.32;100308.65;103796;1317;81899;-89
2022/06/13 01:28:01;;;;;;;8.60;5.00;;;;;;;25.02;46.11;100306.16;103800;1315;74217;-91
2022/06/13 01:39:58;;;;;;;8.40;5.50;;;;;;;25.00;46.05;100312.84;88897;1329;66572;-90
2022/06/13 01:45:57;;;;;;;8.50;6.50;;;;;;;25.06;46.05;100315.18;103760;1318;81930;-90
2022/06/13 01:54:26;;;;;;;9.90;5.90;;;;;;;25.00;45.86;100314.64;103768;1315;67748;-90
2022/06/13 02:03:27;;;;;;;8.70;6.40;;;;;;;25.01;45.93;100316.08;103731;1315;72198;-90
2022/06/13 02:09:14;;;;;;;8.70;5.60;;;;;;;25.02;45.93;100321.51;103765;1315;67723;-91
2022/06/13 02:14:57;;;;;;;7.30;5.80;;;;;;;25.01;45.81;100317.96;103735;1315;82527;-89
2022/06/13 02:20:33;;;;;;;8.60;5.30;;;;;;;24.97;45.83;100326.43;103763;1316;68148;-89
2022/06/13 02:26:16;;;;;;;8.00;5.50;;;;;;;25.01;45.83;100327.39;103773;1316;74253;-89
2022/06/13 02:32:01;;;;;;;8.10;5.10;;;;;;;24.96;45.82;100331.90;103760;1315;71545;-90
2022/06/13 02:37:35;;;;;;;9.70;5.20;;;;;;;24.99;45.76;100337.56;103723;1315;67819;-90
2022/06/13 02:43:23;;;;;;;7.90;5.20;;;;;;;24.97;45.56;100341.71;103759;1315;81611;-90
2022/06/13 02:49:13;;;;;;;10.60;5.20;;;;;;;24.95;45.68;100347.88;103787;1316;67538;-90
2022/06/13 02:55:01;;;;;;;8.20;4.60;;;;;;;24.93;45.60;100353.89;103769;1315;73548;-90
2022/06/13 03:00:40;;;;;;;6.60;5.00;;;;;;;24.89;45.57;100355.19;103730;1315;71616;-90
2022/06/13 03:06:38;;;;;;;6.60;5.10;;;;;;;24.86;45.61;100352.98;103755;1327;67635;-90
2022/06/13 03:15:19;;;;;;;8.10;4.80;;;;;;;24.96;45.59;100350.02;103780;1315;68308;-90
2022/06/13 03:21:19;;;;;;;6.70;4.70;;;;;;;24.92;45.47;100352.88;103771;1316;68049;-90
2022/06/13 03:26:58;;;;;;;6.40;4.90;;;;;;;24.94;45.40;100355.88;103779;1315;83914;-91
2022/06/13 03:32:35;;;;;;;5.60;4.40;;;;;;;24.93;45.29;100354.59;103764;1315;67902;-89
2022/06/13 03:38:25;;;;;;;6.00;4.70;;;;;;;24.88;45.35;100355.66;103785;1315;74496;-90
2022/06/13 03:44:00;;;;;;;8.80;4.90;;;;;;;24.94;45.27;100361.29;103745;1315;72336;-90
2022/06/13 03:49:34;;;;;;;6.10;4.90;;;;;;;24.89;45.26;100360.59;103722;1315;67712;-90
2022/06/13 03:55:20;;;;;;;11.70;4.70;;;;;;;24.93;45.35;100360.10;103744;1316;81303;-91
2022/06/13 04:01:19;;;;;;;7.10;5.30;;;;;;;24.91;45.14;100369.05;103780;1315;67717;-90
2022/06/13 04:07:11;;;;;;;7.50;5.00;;;;;;;24.93;45.35;100368.71;103718;1318;73549;-91
2022/06/13 04:12:53;;;;;;;8.20;5.10;;;;;;;24.92;45.26;100370.52;103761;1315;71614;-90
2022/06/13 04:18:46;;;;;;;6.60;4.70;;;;;;;24.93;45.34;100372.36;103773;1314;67812;-86
2022/06/13 04:24:23;;;;;;;5.80;4.80;;;;;;;24.94;45.31;100369.36;103767;1316;79970;-90
2022/06/13 04:33:43;;;;;;;6.80;5.20;;;;;;;24.92;45.32;100373.83;103804;1316;67311;31
2022/06/13 04:39:32;;;;;;;7.20;4.90;;;;;;;24.91;45.19;100377.59;103698;1315;81297;-90
2022/06/13 04:42:35;;;;;;;6.60;5.30;;;;;;;24.88;45.24;100386.04;103730;1315;71733;-89
2022/06/13 04:45:46;;;;;;;7.20;5.10;;;;;;;24.90;45.41;100385.85;103617;1315;67964;-88
2022/06/13 04:51:53;;;;;;;8.80;5.40;;;;;;;24.93;45.19;100395.52;103793;1315;73594;-90
2022/06/13 04:57:33;;;;;;;7.80;5.50;;;;;;;24.90;45.24;100396.04;103786;1315;71706;-88
2022/06/13 05:03:42;;;;;;;9.00;5.50;;;;;;;24.96;45.28;100403.09;103788;1315;67552;-89
2022/06/13 05:09:32;;;;;;;6.60;5.40;;;;;;;24.92;45.27;100398.63;103736;1316;81355;31
2022/06/13 05:15:28;;;;;;;9.80;6.10;;;;;;;24.99;45.22;100401.59;103753;1316;67732;-88
2022/06/13 05:21:27;;;;;;;9.50;5.40;;;;;;;24.97;45.33;100401.77;103845;1315;73439;31
2022/06/13 05:27:09;;;;;;;8.50;5.50;;;;;;;25.00;45.25;100400.75;103756;1318;71513;-90
2022/06/13 05:35:36;;;;;;;7.50;5.80;;;;;;;24.98;45.30;100403.10;103828;1315;73472;-90
2022/06/13 05:44:18;;;;;;;6.40;5.70;;;;;;;25.06;45.28;100405.41;103832;1315;67813;-90
2022/06/13 05:49:58;;;;;;;7.40;6.10;;;;;;;25.07;45.18;100404.45;103827;1315;74075;-88
2022/06/13 05:55:36;;;;;;;10.20;5.50;;;;;;;25.07;45.16;100401.04;103704;1315;71845;-90
2022/06/13 06:01:17;;;;;;;8.80;5.90;;;;;;;25.02;45.16;100401.70;103774;1315;67045;-89
2022/06/13 06:06:55;;;;;;;6.90;5.40;;;;;;;24.99;45.28;100401.75;103740;1315;81981;-90
2022/06/13 06:12:36;;;;;;;6.70;5.40;;;;;;;25.07;45.32;100390.73;103729;1318;67428;-90
2022/06/13 06:15:40;;;;;;;6.00;5.20;;;;;;;25.12;45.23;100398.02;103742;1319;67881;-89
2022/06/13 06:21:35;;;;;;;7.50;5.20;;;;;;;25.08;45.16;100399.38;103749;1315;81254;-90
2022/06/13 06:27:14;;;;;;;6.60;5.30;;;;;;;25.16;45.12;100409.21;103758;1315;67847;-86
2022/06/13 06:32:55;;;;;;;5.80;5.20;;;;;;;25.12;44.91;100424.16;103809;1317;73847;-90
2022/06/13 06:41:18;;;;;;;6.60;5.30;;;;;;;25.17;44.80;100412.52;103755;1315;68041;-90
2022/06/13 06:46:58;;;;;;;6.10;5.20;;;;;;;25.12;44.80;100405.52;103708;1315;74205;-90
2022/06/13 06:52:33;;;;;;;6.00;5.40;;;;;;;25.17;44.79;100412.79;103747;1315;72342;-90
2022/06/13 07:03:55;;;;;;;5.90;5.10;;;;;;;25.16;44.73;100412.36;103668;1318;73767;-90
2022/06/13 07:06:56;;;;;;;6.00;5.40;;;;;;;25.20;44.59;100412.02;103725;1315;71854;-88
2022/06/13 07:12:50;;;;;;;6.20;5.60;;;;;;;25.20;44.65;100409.35;103788;1315;67210;-89
2022/06/13 07:18:27;;;;;;;6.40;5.30;;;;;;;25.24;44.48;100408.03;103767;1315;81901;-90
2022/06/13 07:24:03;;;;;;;5.80;5.10;;;;;;;25.26;44.33;100411.44;103337;1328;67766;-91
2022/06/13 07:29:43;;;;;;;6.60;5.50;;;;;;;25.25;44.44;100408.75;103778;1316;76049;-90
2022/06/13 07:35:50;;;;;;;6.00;5.20;;;;;;;25.28;44.31;100411.05;103735;1328;72001;-90
2022/06/13 07:47:17;;;;;;;5.80;5.20;;;;;;;25.32;44.12;100424.19;103796;1316;80063;-90
2022/06/13 07:53:10;;;;;;;7.60;5.40;;;;;;;25.27;44.20;100417.25;101624;1328;67010;-90
2022/06/13 07:59:00;;;;;;;7.50;5.70;;;;;;;25.31;44.10;100422.98;103818;1315;73892;-90
2022/06/13 08:04:36;;;;;;;5.90;5.40;;;;;;;25.30;44.22;100418.68;103755;1315;71846;-88
2022/06/13 08:10:10;;;;;;;7.10;5.40;;;;;;;25.30;44.22;100417.58;103805;1316;67256;-88
2022/06/13 08:15:50;;;;;;;5.80;5.20;;;;;;;25.34;44.20;100418.20;103805;1315;81828;-90
2022/06/13 08:21:43;;;;;;;5.50;5.00;;;;;;;25.30;44.30;100416.67;103722;1318;67996;-90
2022/06/13 08:27:33;;;;;;;6.30;5.80;;;;;;;25.34;44.39;100408.36;103727;1315;74346;-90
2022/06/13 08:33:08;;;;;;;6.60;5.80;;;;;;;25.32;44.27;100415.25;103731;1315;72338;-88
2022/06/13 08:38:44;;;;;;;7.30;5.70;;;;;;;25.34;44.32;100413.86;103793;1316;67618;31
2022/06/13 08:44:53;;;;;;;5.90;5.40;;;;;;;25.36;44.33;100416.09;99513;1315;82070;-91
2022/06/13 08:47:46;;;;;;;6.50;5.90;;;;;;;25.38;44.38;100418.03;103775;1315;71923;-89
2022/06/13 08:50:49;;;;;;;6.50;5.90;;;;;;;25.37;44.29;100411.80;103783;1320;67930;-89
2022/06/13 08:56:47;;;;;;;6.30;5.70;;;;;;;25.37;44.25;100406.65;103719;1316;74188;-89
2022/06/13 09:02:44;;;;;;;6.30;5.70;;;;;;;25.32;44.14;100409.23;103713;1315;72607;-86
2022/06/13 09:08:24;;;;;;;5.90;5.40;;;;;;;25.33;44.32;100402.67;103809;1316;67655;-88
2022/06/13 09:35:19;;;;;;;7.00;6.40;;;;;;;25.38;44.34;100405.45;89147;1333;66683;-89
2022/06/13 09:41:38;;;;;;;8.90;6.10;;;;;;;25.43;44.36;100409.14;103758;1319;73104;-89
2022/06/13 09:47:14;;;;;;;6.80;6.20;;;;;;;25.41;44.31;100403.34;103741;1316;72403;-90
2022/06/13 09:59:13;;;;;;;7.20;6.50;;;;;;;25.42;44.52;100390.45;103786;1316;81973;-90
2022/06/13 10:08:18;;;;;;;7.40;6.60;;;;;;;25.47;44.61;100379.81;103634;1329;67696;-90
2022/06/13 10:16:46;;;;;;;6.40;5.80;;;;;;;25.48;44.69;100381.34;103782;1316;75910;-89
2022/06/13 10:23:08;;;;;;;6.80;6.10;;;;;;;25.48;44.67;100389.77;103721;1315;67077;-90
2022/06/13 10:28:36;;;;;;;7.10;6.40;;;;;;;25.49;44.81;100386.00;103721;1319;74954;-89
2022/06/13 10:34:48;;;;;;;6.90;6.30;;;;;;;25.51;44.90;100377.45;103811;1315;68060;-90
2022/06/13 10:40:40;;;;;;;8.10;6.20;;;;;;;25.51;44.99;100366.91;103770;1315;68050;-90
2022/06/13 10:46:30;;;;;;;7.30;6.50;;;;;;;25.55;44.82;100364.04;103707;1318;72480;-89
2022/06/13 10:52:20;;;;;;;7.50;6.60;;;;;;;25.51;44.90;100357.89;103781;1315;68152;-90
2022/06/13 10:57:54;;;;;;;8.20;6.80;;;;;;;25.54;44.92;100349.98;103760;1315;81819;-90
2022/06/13 11:03:31;;;;;;;10.00;7.00;;;;;;;25.52;44.94;100344.55;103751;1315;67079;-90
2022/06/13 11:06:34;;;;;;;8.60;7.50;;;;;;;25.54;45.13;100339.93;103697;1316;67826;-89
2022/06/13 11:12:28;;;;;;;7.90;7.10;;;;;;;25.58;45.11;100327.90;103750;1315;81873;-89
2022/06/13 11:24:03;;;;;;;8.50;7.40;;;;;;;25.59;45.26;100316.39;103782;1315;74268;-91
2022/06/13 11:29:37;;;;;;;7.80;7.00;;;;;;;25.58;45.33;100318.53;103745;1316;72369;-90
2022/06/13 11:35:16;;;;;;;8.60;7.70;;;;;;;25.60;45.32;100309.18;103827;1315;67803;-91
2022/06/13 11:41:34;;;;;;;9.90;7.50;;;;;;;25.59;45.36;100300.62;103774;1315;82146;-91
2022/06/13 11:47:26;;;;;;;8.50;7.30;;;;;;;25.60;45.35;100309.02;103807;1316;68026;-90
2022/06/13 11:59:05;;;;;;;9.20;7.90;;;;;;;25.56;45.50;100300.48;103731;1315;72353;-91
2022/06/13 12:04:46;;;;;;;9.20;7.70;;;;;;;25.50;45.39;100311.34;103754;1316;67712;-91
2022/06/13 12:08:08;;;;;;;8.90;8.00;;;;;;;25.48;45.60;100310.92;103764;1315;74142;31
2022/06/13 12:14:06;;;;;;;9.00;8.10;;;;;;;25.51;45.81;100300.92;103749;1316;72209;-88
2022/06/13 12:20:00;;;;;;;9.50;8.50;;;;;;;25.55;45.64;100298.08;103713;1315;67428;31
2022/06/13 12:26:05;;;;;;;10.50;9.20;;;;;;;25.54;45.67;100344.12;103723;1315;80902;31
2022/06/13 12:31:40;;;;;;;11.20;9.10;;;;;;;25.57;45.64;100368.69;103766;1315;67790;-89
2022/06/13 12:37:35;;;;;;;10.00;8.70;;;;;;;25.53;45.69;100353.52;103703;1318;66567;-90
2022/06/13 12:40:38;;;;;;;10.40;8.80;;;;;;;25.55;45.79;100333.52;103429;1315;82047;-90
2022/06/13 12:46:50;;;;;;;9.00;7.90;;;;;;;25.57;45.62;100311.94;103744;1316;67011;31
2022/06/13 12:50:13;;;;;;;10.10;8.30;;;;;;;25.54;45.82;100310.39;99710;1315;5548380;-87
2022/06/13 12:53:38;;;;;;;9.10;8.10;;;;;;;25.54;45.98;100296.15;103775;1316;74095;-89
2022/06/13 13:02:51;;;;;;;7.70;6.90;;;;;;;25.54;45.88;100277.40;103708;1315;67933;-90
2022/06/13 13:09:34;;;;;;;8.80;7.60;;;;;;;25.57;46.02;100277.29;103757;1315;73417;-89
2022/06/13 13:12:45;;;;;;;8.90;6.80;;;;;;;25.59;46.13;100278.83;103771;1315;82302;-90
2022/06/13 13:15:48;;;;;;;9.50;6.70;;;;;;;25.54;46.30;100277.29;103771;1315;71109;-89
2022/06/13 13:21:34;;;;;;;8.10;6.50;;;;;;;25.58;46.56;100280.10;103752;1315;67931;-90
2022/06/13 13:27:26;;;;;;;9.60;7.00;;;;;;;25.59;46.57;100275.13;103775;1315;81723;-89
2022/06/13 13:33:04;;;;;;;8.70;6.40;;;;;;;25.56;46.92;100275.61;103734;1315;67712;-90
2022/06/13 13:38:50;;;;;;;8.30;6.70;;;;;;;25.57;46.93;100264.60;103765;1315;67808;-89
2022/06/13 13:44:40;;;;;;;12.00;7.10;;;;;;;25.55;47.09;100262.08;103767;1315;67664;-90
2022/06/13 13:50:29;;;;;;;7.20;6.50;;;;;;;25.59;47.11;100250.76;103881;1315;67148;-90
2022/06/13 13:56:44;;;;;;;8.00;7.20;;;;;;;25.54;47.08;100239.42;103866;1315;82021;-88
2022/06/13 14:00:02;;;;;;;10.80;7.20;;;;;;;25.55;47.16;100231.02;103757;1318;72962;-90
2022/06/13 14:06:12;;;;;;;9.50;7.00;;;;;;;25.57;46.86;100228.83;103771;1315;68103;-89
2022/06/13 14:09:15;;;;;;;8.30;7.50;;;;;;;25.53;46.97;100227.34;103749;1315;74308;-90
2022/06/13 14:15:14;;;;;;;11.30;7.50;;;;;;;25.58;46.87;100225.81;103804;1315;72163;-88
2022/06/13 14:20:51;;;;;;;8.90;8.00;;;;;;;25.56;46.66;100214.00;103730;1316;67737;-89
2022/06/13 14:26:34;;;;;;;9.10;7.50;;;;;;;25.59;46.92;100217.37;103765;1315;82012;-90
2022/06/13 14:32:20;;;;;;;8.50;7.70;;;;;;;25.60;46.62;100217.34;103746;1314;67079;-90
2022/06/13 14:37:56;;;;;;;8.60;7.70;;;;;;;25.58;46.42;100203.75;103755;1315;73225;-90
2022/06/13 14:43:34;;;;;;;8.40;7.60;;;;;;;25.60;46.48;100200.90;103803;1315;71708;-88
2022/06/13 14:49:35;;;;;;;9.50;7.90;;;;;;;25.63;46.28;100211.89;103783;1315;67434;-90
2022/06/13 14:55:22;;;;;;;8.10;7.30;;;;;;;25.62;46.29;100211.58;103773;1315;81793;-90
2022/06/13 15:01:30;;;;;;;9.60;8.00;;;;;;;25.60;46.25;100207.77;103705;1327;67776;-88
2022/06/13 15:07:28;;;;;;;8.40;7.50;;;;;;;25.53;46.05;100220.23;103791;1315;74301;-87
2022/06/13 15:13:07;;;;;;;8.00;7.10;;;;;;;25.54;46.09;100242.58;103762;1315;70608;-91
2022/06/13 15:21:28;;;;;;;7.50;6.80;;;;;;;25.63;45.87;100266.33;103810;1315;74271;-91
2022/06/13 15:27:01;;;;;;;7.50;6.80;;;;;;;25.62;45.85;100269.65;103798;1315;71802;-90
2022/06/13 15:32:42;;;;;;;7.40;6.70;;;;;;;25.66;45.76;100271.61;103761;1315;67764;-89
2022/06/13 15:36:04;;;;;;;7.70;6.90;;;;;;;25.64;45.69;100275.02;103775;1315;73722;-91
2022/06/13 15:41:51;;;;;;;8.20;6.30;;;;;;;25.63;45.83;100255.79;103744;1315;71448;-90
2022/06/13 15:47:27;;;;;;;7.90;6.50;;;;;;;25.64;45.58;100242.13;103752;1315;67730;-90
2022/06/13 15:53:01;;;;;;;7.80;6.40;;;;;;;25.59;45.74;100231.64;103767;1315;81978;-91
2022/06/13 15:58:46;;;;;;;10.40;6.70;;;;;;;25.64;45.84;100239.23;103746;1316;68032;-91
2022/06/13 16:04:32;;;;;;;6.90;6.20;;;;;;;25.60;45.67;100249.34;103772;1315;73539;-90
2022/06/13 16:10:08;;;;;;;7.10;6.40;;;;;;;25.63;45.70;100261.05;103754;1315;71482;-90
2022/06/13 16:19:02;;;;;;;;;;;;;;;25.57;45.75;100251.98;99958;1327;74397;-89
2022/06/13 16:24:44;;;;;;;7.00;6.30;;;;;;;25.63;45.69;100243.52;103708;1323;75213;-89
2022/06/13 16:30:19;;;;;;;7.50;6.70;;;;;;;25.59;45.70;100245.09;103777;1315;67704;-89
2022/06/13 16:36:12;;;;;;;8.00;6.40;;;;;;;25.62;45.82;100247.41;103795;1318;81927;-88
2022/06/13 16:42:05;;;;;;;7.80;6.90;;;;;;;25.62;45.53;100248.83;103750;1315;67690;-91
2022/06/13 16:47:44;;;;;;;8.00;6.60;;;;;;;25.60;45.69;100278.81;103821;1315;73709;-89
2022/06/13 16:53:23;;;;;;;9.30;6.90;;;;;;;25.68;45.39;100270.76;103783;1315;71448;-91
2022/06/13 16:59:06;;;;;;;9.70;6.70;;;;;;;25.61;45.49;100264.59;103768;1315;68024;-90
2022/06/13 17:04:42;;;;;;;10.60;6.90;;;;;;;25.65;45.43;100261.07;103814;1315;81913;-91
2022/06/13 17:10:22;;;;;;;8.20;6.80;;;;;;;25.60;45.39;100265.32;103765;1315;68514;-89
2022/06/13 17:15:58;;;;;;;7.80;6.60;;;;;;;25.65;45.29;100275.04;103832;1315;74526;-89
2022/06/13 17:24:51;;;;;;;8.10;6.20;;;;;;;25.59;45.34;100268.13;103793;1315;67615;-90
2022/06/13 17:34:07;;;;;;;8.80;7.00;;;;;;;25.64;45.42;100256.33;103763;1315;82534;-91
2022/06/13 17:39:57;;;;;;;8.70;6.30;;;;;;;25.58;45.48;100249.39;103241;1315;68365;-91
2022/06/13 17:45:47;;;;;;;8.50;7.00;;;;;;;25.62;45.39;100234.77;103732;1318;73725;-91
2022/06/13 17:54:07;;;;;;;10.10;7.40;;;;;;;25.62;45.50;100230.28;103685;1316;67832;-90
2022/06/13 17:59:57;;;;;;;9.20;8.10;;;;;;;25.60;45.50;100223.13;103787;1315;73600;-90
2022/06/13 18:05:31;;;;;;;11.50;8.50;;;;;;;25.54;45.55;100217.83;103744;1316;70729;-89
2022/06/13 18:11:07;;;;;;;9.50;7.90;;;;;;;25.49;45.58;100210.27;103747;1315;68136;-91
2022/06/13 18:16:45;;;;;;;12.70;7.70;;;;;;;25.57;45.75;100215.94;103733;1315;81856;-91
2022/06/13 18:22:21;;;;;;;10.90;8.20;;;;;;;25.60;45.75;100220.96;103691;1315;67052;-90
2022/06/13 18:25:24;;;;;;;10.40;7.60;;;;;;;25.57;45.99;100229.95;103748;1315;67093;-89
2022/06/13 18:28:29;;;;;;;8.40;7.50;;;;;;;25.59;45.95;100228.35;103798;1315;72964;-89
2022/06/13 18:34:10;;;;;;;10.60;8.60;;;;;;;25.65;45.78;100229.81;103718;1315;67162;-89
2022/06/13 18:37:13;;;;;;;10.90;8.20;;;;;;;25.58;45.78;100233.37;103755;1315;68008;-90
2022/06/13 18:40:22;;;;;;;9.80;8.00;;;;;;;25.58;46.10;100229.56;103774;1315;67340;-88
2022/06/13 18:43:19;;;;;;;10.10;8.40;;;;;;;25.61;45.99;100233.56;100169;1315;73833;-88
2022/06/13 18:49:13;;;;;;;12.10;9.70;;;;;;;25.61;46.02;100239.60;103719;1315;71791;-91
2022/06/13 18:55:02;;;;;;;11.70;9.20;;;;;;;25.62;46.14;100253.11;103765;1315;67284;-90
2022/06/13 19:00:40;;;;;;;13.00;9.50;;;;;;;25.67;46.04;100262.80;103794;1315;81466;-90
2022/06/13 19:06:13;;;;;;;11.50;9.50;;;;;;;25.61;46.31;100265.27;103787;1315;67719;-91
2022/06/13 19:11:48;;;;;;;12.30;9.80;;;;;;;25.67;46.33;100281.75;103753;1318;73304;-89
2022/06/13 19:20:12;;;;;;;13.70;10.40;;;;;;;25.60;46.37;100273.52;103769;1315;68249;-89
2022/06/13 19:23:36;;;;;;;12.20;9.50;;;;;;;25.63;46.51;100273.71;103812;1315;67161;-88
2022/06/13 19:29:27;;;;;;;13.80;10.10;;;;;;;25.62;46.47;100279.36;102800;1318;81680;-90
2022/06/13 19:35:01;;;;;;;11.50;9.30;;;;;;;25.60;46.60;100276.77;103742;1315;67823;-89
2022/06/13 19:37:49;;;;;;;12.80;9.90;;;;;;;25.64;46.75;100276.89;103770;1315;67079;-90
2022/06/13 19:43:26;;;;;;;13.00;10.50;;;;;;;25.63;46.61;100283.04;103772;1315;75135;-89
2022/06/13 19:49:03;;;;;;;14.70;11.70;;;;;;;25.62;46.89;100287.64;103719;1315;67912;-89
2022/06/13 19:52:08;;;;;;;14.00;11.00;;;;;;;25.65;46.90;100290.45;103785;1315;67998;-88
2022/06/13 20:00:58;;;;;;;16.20;11.40;;;;;;;25.60;46.86;100309.08;103781;1315;72154;-89
2022/06/13 20:12:29;;;;;;;13.30;10.50;;;;;;;25.61;46.84;100322.79;103797;1315;81993;-89
2022/06/13 20:17:58;;;;;;;13.80;10.00;;;;;;;25.67;46.86;100330.09;103731;1315;67825;-90
2022/06/13 20:26:24;;;;;;;11.40;9.40;;;;;;;25.58;47.10;100330.13;103753;1315;81803;-90
2022/06/13 20:31:59;;;;;;;11.90;9.00;;;;;;;25.64;47.00;100335.15;103745;1316;67639;-91
2022/06/13 20:37:37;;;;;;;11.40;9.00;;;;;;;25.59;47.00;100335.31;103713;1315;74323;-89
2022/06/13 20:43:18;;;;;;;9.40;8.40;;;;;;;25.59;47.04;100331.52;103768;1315;72020;-88
2022/06/13 20:48:52;;;;;;;11.90;8.40;;;;;;;25.65;46.97;100326.42;103817;1315;67526;-89
2022/06/13 20:54:26;;;;;;;11.80;8.10;;;;;;;25.65;46.84;100325.79;103759;1315;82196;-89
2022/06/13 21:00:04;;;;;;;11.30;8.20;;;;;;;25.62;46.92;100325.04;103739;1315;67740;31
2022/06/13 21:03:07;;;;;;;8.90;7.60;;;;;;;25.60;46.92;100327.27;103730;1315;67261;-90
2022/06/13 21:15:02;;;;;;;9.80;7.10;;;;;;;25.51;47.13;100333.27;102085;1315;67179;31
2022/06/13 21:20:48;;;;;;;10.50;7.20;;;;;;;25.59;47.00;100333.95;103717;1328;73677;-91
2022/06/13 21:29:59;;;;;;;8.00;7.30;;;;;;;25.57;47.02;100325.01;103767;1315;67393;31
2022/06/13 21:33:02;;;;;;;7.70;6.90;;;;;;;25.60;47.09;100325.69;103816;1315;67540;-89
2022/06/13 21:36:11;;;;;;;9.70;7.40;;;;;;;25.62;47.01;100322.02;99562;1315;74087;-90
2022/06/13 21:39:16;;;;;;;10.40;7.20;;;;;;;25.59;46.93;100321.33;103807;1315;81868;-89
2022/06/13 21:45:11;;;;;;;10.50;7.00;;;;;;;25.57;46.97;100329.77;103680;1318;67743;-90
2022/06/13 21:50:55;;;;;;;8.40;7.20;;;;;;;25.60;46.81;100326.53;103810;1315;74275;31
2022/06/13 21:59:16;;;;;;;11.20;8.50;;;;;;;25.57;47.06;100324.02;103746;1322;67919;-91
2022/06/13 22:08:14;;;;;;;12.50;7.80;;;;;;;25.50;47.02;100322.33;103786;1319;83264;-89
2022/06/13 22:17:04;;;;;;;12.40;7.80;;;;;;;25.54;46.87;100317.83;103809;1315;67138;-90
2022/06/13 22:22:36;;;;;;;9.60;7.90;;;;;;;25.50;47.06;100306.20;103741;1315;81932;-90
2022/06/13 22:28:14;;;;;;;10.90;7.60;;;;;;;25.54;47.11;100296.98;103727;1315;67754;-90
2022/06/13 22:31:16;;;;;;;12.50;8.00;;;;;;;25.52;46.93;100301.00;103720;1315;67793;-91
2022/06/13 22:37:09;;;;;;;11.90;8.10;;;;;;;25.49;47.06;100299.65;103715;1315;81903;-90
2022/06/13 22:42:43;;;;;;;8.70;7.60;;;;;;;25.51;46.98;100298.53;103759;1316;67831;-90
2022/06/13 22:54:13;;;;;;;10.50;7.30;;;;;;;25.49;46.78;100292.46;103731;1315;72292;-89
2022/06/13 22:59:56;;;;;;;12.80;7.30;;;;;;;25.42;46.80;100289.95;103763;1315;67674;-90
2022/06/13 23:05:38;;;;;;;11.00;7.50;;;;;;;25.45;46.98;100287.38;103784;1315;74514;-90
2022/06/13 23:08:42;;;;;;;8.50;7.30;;;;;;;25.45;46.85;100289.51;103804;1315;71072;-89
2022/06/13 23:14:36;;;;;;;8.50;7.30;;;;;;;25.41;46.78;100284.86;103696;1316;67080;-90
2022/06/13 23:22:53;;;;;;;8.90;6.90;;;;;;;25.44;46.69;100279.84;103756;1315;71529;-91
2022/06/13 23:28:43;;;;;;;8.30;6.80;;;;;;;25.42;46.78;100278.25;103775;1315;67601;-89
2022/06/13 23:34:23;;;;;;;9.80;7.30;;;;;;;25.45;46.61;100286.00;103784;1316;84245;-91
2022/06/13 23:40:18;;;;;;;9.70;7.40;;;;;;;25.42;46.70;100280.61;103744;1316;67924;-88
2022/06/13 23:45:57;;;;;;;10.30;7.50;;;;;;;25.45;46.72;100283.02;103763;1315;67834;-91
2022/06/13 23:51:44;;;;;;;10.20;7.00;;;;;;;25.43;46.55;100280.22;103762;1315;72342;-90
2022/06/13 23:57:19;;;;;;;10.20;7.60;;;;;;;25.41;46.59;100281.61;103758;1315;67194;-90
